sensor_id;sensor_type;location;lat;lon;timestamp;pressure;altitude;pressure_sealevel;temperature;humidity
18275;BME280;19470;49.322;7.218;2022-12-29T00:00:15;98071.19;;;12.60;100.00
18275;BME280;19470;49.322;7.218;2022-12-29T00:02:41;98093.44;;;12.95;100.00
18275;BME280;19470;49.322;7.218;2022-12-29T00:05:08;98067.91;;;12.99;100.00
18275;BME280;19470;49.322;7.218;2022-12-29T00:07:36;98074.06;;;12.79;100.00
18275;BME280;19470;49.322;7.218;2022-12-29T00:10:03;98063.97;;;12.86;100.00
18275;BME280;19470;49.322;7.218;2022-12-29T00:12:30;98087.53;;;13.13;100.00
18275;BME280;19470;49.322;7.218;2022-12-29T00:15:16;98084.09;;;13.02;100.00
18275;BME280;19470;49.322;7.218;2022-12-29T00:18:00;98079.56;;;13.08;100.00
18275;BME280;19470;49.322;7.218;2022-12-29T00:20:27;98074.78;;;13.10;100.00
18275;BME280;19470;49.322;7.218;2022-12-29T00:23:12;98069.94;;;13.27;100.00
18275;BME280;19470;49.322;7.218;2022-12-29T00:25:56;98064.88;;;13.26;100.00
18275;BME280;19470;49.322;7.218;2022-12-29T00:28:40;98076.34;;;13.11;100.00
18275;BME280;19470;49.322;7.218;2022-12-29T00:31:24;98066.22;;;13.28;100.00
18275;BME280;19470;49.322;7.218;2022-12-29T00:34:10;98119.16;;;13.10;100.00
18275;BME280;19470;49.322;7.218;2022-12-29T00:36:55;98063.72;;;13.47;100.00
18275;BME280;19470;49.322;7.218;2022-12-29T00:39:23;98060.56;;;13.40;100.00
18275;BME280;19470;49.322;7.218;2022-12-29T00:42:09;98043.69;;;13.60;100.00
18275;BME280;19470;49.322;7.218;2022-12-29T00:44:58;98054.47;;;13.35;100.00
18275;BME280;19470;49.322;7.218;2022-12-29T00:47:24;98059.91;;;13.59;100.00
18275;BME280;19470;49.322;7.218;2022-12-29T00:49:51;98040.03;;;13.51;100.00
18275;BME280;19470;49.322;7.218;2022-12-29T00:52:16;98057.16;;;13.29;100.00
18275;BME280;19470;49.322;7.218;2022-12-29T00:54:44;98034.59;;;13.12;100.00
18275;BME280;19470;49.322;7.218;2022-12-29T00:57:11;98056.06;;;13.36;100.00
18275;BME280;19470;49.322;7.218;2022-12-29T00:59:39;98028.22;;;13.62;100.00
18275;BME280;19470;49.322;7.218;2022-12-29T01:02:06;98042.25;;;13.34;100.00
18275;BME280;19470;49.322;7.218;2022-12-29T01:04:33;98047.13;;;13.11;100.00
18275;BME280;19470;49.322;7.218;2022-12-29T01:06:59;98055.56;;;13.28;100.00
18275;BME280;19470;49.322;7.218;2022-12-29T01:09:26;98043.38;;;13.12;100.00
18275;BME280;19470;49.322;7.218;2022-12-29T01:12:11;98038.38;;;13.05;100.00
18275;BME280;19470;49.322;7.218;2022-12-29T01:14:38;98044.44;;;13.16;100.00
18275;BME280;19470;49.322;7.218;2022-12-29T01:17:05;98040.31;;;12.90;100.00
18275;BME280;19470;49.322;7.218;2022-12-29T01:19:32;98043.50;;;12.87;100.00
18275;BME280;19470;49.322;7.218;2022-12-29T01:21:58;98028.66;;;12.81;100.00
18275;BME280;19470;49.322;7.218;2022-12-29T01:24:25;98046.44;;;12.85;100.00
18275;BME280;19470;49.322;7.218;2022-12-29T01:26:52;98026.06;;;12.50;100.00
18275;BME280;19470;49.322;7.218;2022-12-29T01:29:21;98049.88;;;12.86;100.00
18275;BME280;19470;49.322;7.218;2022-12-29T01:31:47;98050.50;;;12.57;100.00
18275;BME280;19470;49.322;7.218;2022-12-29T01:34:14;98034.97;;;12.95;100.00
18275;BME280;19470;49.322;7.218;2022-12-29T01:36:41;98046.31;;;13.11;100.00
18275;BME280;19470;49.322;7.218;2022-12-29T01:39:07;98035.75;;;13.00;100.00
18275;BME280;19470;49.322;7.218;2022-12-29T01:41:34;98048.38;;;12.59;100.00
18275;BME280;19470;49.322;7.218;2022-12-29T01:44:00;98061.06;;;12.77;100.00
18275;BME280;19470;49.322;7.218;2022-12-29T01:46:31;98035.78;;;12.90;100.00
18275;BME280;19470;49.322;7.218;2022-12-29T01:49:05;98013.19;;;12.88;100.00
18275;BME280;19470;49.322;7.218;2022-12-29T01:51:39;98024.13;;;12.81;100.00
18275;BME280;19470;49.322;7.218;2022-12-29T01:54:10;98024.84;;;12.97;100.00
18275;BME280;19470;49.322;7.218;2022-12-29T01:56:38;98041.97;;;12.70;100.00
18275;BME280;19470;49.322;7.218;2022-12-29T01:59:07;98022.19;;;12.97;100.00
18275;BME280;19470;49.322;7.218;2022-12-29T02:01:35;98025.13;;;12.95;100.00
18275;BME280;19470;49.322;7.218;2022-12-29T02:04:02;98026.78;;;12.81;100.00
18275;BME280;19470;49.322;7.218;2022-12-29T02:06:33;98026.03;;;12.65;100.00
18275;BME280;19470;49.322;7.218;2022-12-29T02:09:01;98017.38;;;13.04;100.00
18275;BME280;19470;49.322;7.218;2022-12-29T02:11:28;98020.31;;;13.02;100.00
18275;BME280;19470;49.322;7.218;2022-12-29T02:13:56;98022.44;;;13.00;100.00
18275;BME280;19470;49.322;7.218;2022-12-29T02:16:37;98032.81;;;12.97;100.00
18275;BME280;19470;49.322;7.218;2022-12-29T02:19:26;98009.28;;;12.65;100.00
18275;BME280;19470;49.322;7.218;2022-12-29T02:22:07;98014.50;;;12.95;100.00
18275;BME280;19470;49.322;7.218;2022-12-29T02:25:04;98063.09;;;13.01;100.00
18275;BME280;19470;49.322;7.218;2022-12-29T02:28:02;98005.09;;;13.23;100.00
18275;BME280;19470;49.322;7.218;2022-12-29T02:30:40;98000.94;;;12.97;100.00
18275;BME280;19470;49.322;7.218;2022-12-29T02:33:15;98004.97;;;12.84;100.00
18275;BME280;19470;49.322;7.218;2022-12-29T02:35:52;97992.34;;;13.15;100.00
18275;BME280;19470;49.322;7.218;2022-12-29T02:38:34;98011.06;;;12.95;100.00
18275;BME280;19470;49.322;7.218;2022-12-29T02:41:14;97989.16;;;13.13;100.00
18275;BME280;19470;49.322;7.218;2022-12-29T02:43:49;98023.53;;;12.94;100.00
18275;BME280;19470;49.322;7.218;2022-12-29T02:46:22;97977.38;;;12.75;100.00
18275;BME280;19470;49.322;7.218;2022-12-29T02:48:59;97972.66;;;13.16;100.00
18275;BME280;19470;49.322;7.218;2022-12-29T02:51:32;97964.72;;;13.11;100.00
18275;BME280;19470;49.322;7.218;2022-12-29T02:54:00;97944.00;;;13.08;100.00
18275;BME280;19470;49.322;7.218;2022-12-29T02:56:45;97967.91;;;13.52;100.00
18275;BME280;19470;49.322;7.218;2022-12-29T02:59:12;97947.00;;;12.96;100.00
18275;BME280;19470;49.322;7.218;2022-12-29T03:01:55;97958.06;;;13.14;100.00
18275;BME280;19470;49.322;7.218;2022-12-29T03:04:50;97977.34;;;12.85;100.00
18275;BME280;19470;49.322;7.218;2022-12-29T03:07:24;97954.38;;;13.49;100.00
18275;BME280;19470;49.322;7.218;2022-12-29T03:10:01;97955.56;;;13.33;100.00
18275;BME280;19470;49.322;7.218;2022-12-29T03:12:35;97947.63;;;13.27;100.00
18275;BME280;19470;49.322;7.218;2022-12-29T03:15:24;97949.25;;;13.23;100.00
18275;BME280;19470;49.322;7.218;2022-12-29T03:18:19;97941.66;;;13.46;100.00
18275;BME280;19470;49.322;7.218;2022-12-29T03:20:52;97953.75;;;13.28;100.00
18275;BME280;19470;49.322;7.218;2022-12-29T03:23:22;97935.06;;;13.38;100.00
18275;BME280;19470;49.322;7.218;2022-12-29T03:25:53;97997.88;;;13.29;100.00
18275;BME280;19470;49.322;7.218;2022-12-29T03:28:23;97955.16;;;13.10;100.00
18275;BME280;19470;49.322;7.218;2022-12-29T03:30:52;97967.78;;;13.34;100.00
18275;BME280;19470;49.322;7.218;2022-12-29T03:33:23;97925.19;;;13.73;100.00
18275;BME280;19470;49.322;7.218;2022-12-29T03:35:51;97941.75;;;13.30;100.00
18275;BME280;19470;49.322;7.218;2022-12-29T03:38:30;97937.47;;;13.35;100.00
18275;BME280;19470;49.322;7.218;2022-12-29T03:41:03;97915.94;;;13.65;100.00
18275;BME280;19470;49.322;7.218;2022-12-29T03:43:31;97914.97;;;13.56;100.00
18275;BME280;19470;49.322;7.218;2022-12-29T03:45:58;97933.06;;;13.54;100.00
18275;BME280;19470;49.322;7.218;2022-12-29T03:48:26;97928.19;;;13.32;100.00
18275;BME280;19470;49.322;7.218;2022-12-29T03:50:53;97958.50;;;13.31;100.00
18275;BME280;19470;49.322;7.218;2022-12-29T03:53:19;97908.38;;;13.77;100.00
18275;BME280;19470;49.322;7.218;2022-12-29T03:55:46;97937.00;;;13.17;100.00
18275;BME280;19470;49.322;7.218;2022-12-29T03:58:13;97924.91;;;13.40;100.00
18275;BME280;19470;49.322;7.218;2022-12-29T04:00:39;97937.13;;;13.75;100.00
18275;BME280;19470;49.322;7.218;2022-12-29T04:03:05;97916.88;;;13.79;100.00
18275;BME280;19470;49.322;7.218;2022-12-29T04:05:33;97949.47;;;13.66;100.00
18275;BME280;19470;49.322;7.218;2022-12-29T04:08:00;97935.56;;;13.74;100.00
18275;BME280;19470;49.322;7.218;2022-12-29T04:10:26;97931.81;;;13.75;100.00
18275;BME280;19470;49.322;7.218;2022-12-29T04:12:53;97927.69;;;13.59;100.00
18275;BME280;19470;49.322;7.218;2022-12-29T04:22:04;97928.63;;;13.73;100.00
18275;BME280;19470;49.322;7.218;2022-12-29T04:24:31;97967.72;;;13.44;100.00
18275;BME280;19470;49.322;7.218;2022-12-29T04:26:57;97908.94;;;13.74;100.00
18275;BME280;19470;49.322;7.218;2022-12-29T04:29:23;97932.75;;;13.90;100.00
18275;BME280;19470;49.322;7.218;2022-12-29T04:31:50;97923.16;;;13.25;100.00
18275;BME280;19470;49.322;7.218;2022-12-29T04:34:32;97946.53;;;13.34;100.00
18275;BME280;19470;49.322;7.218;2022-12-29T04:36:58;97943.59;;;13.64;100.00
18275;BME280;19470;49.322;7.218;2022-12-29T04:39:26;97919.13;;;13.67;100.00
18275;BME280;19470;49.322;7.218;2022-12-29T04:41:52;97953.53;;;13.53;100.00
18275;BME280;19470;49.322;7.218;2022-12-29T04:44:19;97939.06;;;13.70;100.00
18275;BME280;19470;49.322;7.218;2022-12-29T04:46:45;97926.81;;;13.98;100.00
18275;BME280;19470;49.322;7.218;2022-12-29T04:49:12;97940.41;;;13.67;100.00
18275;BME280;19470;49.322;7.218;2022-12-29T04:51:38;97897.63;;;13.88;100.00
18275;BME280;19470;49.322;7.218;2022-12-29T04:54:05;97913.19;;;13.75;100.00
18275;BME280;19470;49.322;7.218;2022-12-29T04:56:33;97927.13;;;13.62;100.00
18275;BME280;19470;49.322;7.218;2022-12-29T04:58:59;97949.47;;;13.32;100.00
18275;BME280;19470;49.322;7.218;2022-12-29T05:01:25;97927.81;;;13.44;100.00
18275;BME280;19470;49.322;7.218;2022-12-29T05:03:52;97916.41;;;13.72;100.00
18275;BME280;19470;49.322;7.218;2022-12-29T05:06:18;97912.06;;;13.52;100.00
18275;BME280;19470;49.322;7.218;2022-12-29T05:08:45;97934.84;;;13.29;100.00
18275;BME280;19470;49.322;7.218;2022-12-29T05:11:11;97914.47;;;14.07;100.00
18275;BME280;19470;49.322;7.218;2022-12-29T05:13:39;97919.56;;;13.45;100.00
18275;BME280;19470;49.322;7.218;2022-12-29T05:16:06;97911.41;;;13.95;100.00
18275;BME280;19470;49.322;7.218;2022-12-29T05:18:32;97909.19;;;13.44;100.00
18275;BME280;19470;49.322;7.218;2022-12-29T05:20:59;97923.03;;;13.46;100.00
18275;BME280;19470;49.322;7.218;2022-12-29T05:23:25;97904.38;;;13.51;100.00
18275;BME280;19470;49.322;7.218;2022-12-29T05:25:52;97922.38;;;13.59;100.00
18275;BME280;19470;49.322;7.218;2022-12-29T05:28:18;97908.06;;;13.84;100.00
18275;BME280;19470;49.322;7.218;2022-12-29T05:30:49;97885.03;;;13.98;100.00
18275;BME280;19470;49.322;7.218;2022-12-29T05:33:16;97923.94;;;13.65;100.00
18275;BME280;19470;49.322;7.218;2022-12-29T05:35:42;97884.31;;;13.88;100.00
18275;BME280;19470;49.322;7.218;2022-12-29T05:38:09;97895.47;;;13.66;100.00
18275;BME280;19470;49.322;7.218;2022-12-29T05:40:36;97893.56;;;13.95;100.00
18275;BME280;19470;49.322;7.218;2022-12-29T05:43:02;97896.69;;;13.78;100.00
18275;BME280;19470;49.322;7.218;2022-12-29T05:45:28;97879.34;;;14.05;100.00
18275;BME280;19470;49.322;7.218;2022-12-29T05:47:56;97906.44;;;13.88;100.00
18275;BME280;19470;49.322;7.218;2022-12-29T05:50:23;97910.38;;;13.91;100.00
18275;BME280;19470;49.322;7.218;2022-12-29T05:52:49;97900.25;;;14.17;100.00
18275;BME280;19470;49.322;7.218;2022-12-29T05:55:16;97916.22;;;13.93;100.00
18275;BME280;19470;49.322;7.218;2022-12-29T05:57:42;97899.72;;;14.15;100.00
18275;BME280;19470;49.322;7.218;2022-12-29T06:00:10;97901.13;;;14.12;100.00
18275;BME280;19470;49.322;7.218;2022-12-29T06:02:37;97902.31;;;14.44;99.56
18275;BME280;19470;49.322;7.218;2022-12-29T06:05:05;97918.28;;;13.72;100.00
18275;BME280;19470;49.322;7.218;2022-12-29T06:07:32;97898.88;;;13.95;100.00
18275;BME280;19470;49.322;7.218;2022-12-29T06:09:58;97876.31;;;13.88;100.00
18275;BME280;19470;49.322;7.218;2022-12-29T06:12:24;97892.28;;;13.93;100.00
18275;BME280;19470;49.322;7.218;2022-12-29T06:14:51;97894.25;;;14.06;100.00
18275;BME280;19470;49.322;7.218;2022-12-29T06:17:17;97875.88;;;14.28;99.47
18275;BME280;19470;49.322;7.218;2022-12-29T06:19:44;97871.97;;;14.45;98.56
18275;BME280;19470;49.322;7.218;2022-12-29T06:22:12;97884.06;;;13.89;100.00
18275;BME280;19470;49.322;7.218;2022-12-29T06:24:38;97880.84;;;14.16;98.96
18275;BME280;19470;49.322;7.218;2022-12-29T06:27:05;97924.16;;;13.98;100.00
18275;BME280;19470;49.322;7.218;2022-12-29T06:29:31;97911.91;;;13.97;99.72
18275;BME280;19470;49.322;7.218;2022-12-29T06:31:58;97937.19;;;14.23;98.98
18275;BME280;19470;49.322;7.218;2022-12-29T06:34:24;97898.22;;;14.32;98.56
18275;BME280;19470;49.322;7.218;2022-12-29T06:36:51;97900.56;;;14.34;97.87
18275;BME280;19470;49.322;7.218;2022-12-29T06:39:19;97912.38;;;14.28;97.60
18275;BME280;19470;49.322;7.218;2022-12-29T06:41:45;97918.38;;;14.15;99.30
18275;BME280;19470;49.322;7.218;2022-12-29T06:44:12;97907.22;;;14.61;95.76
18275;BME280;19470;49.322;7.218;2022-12-29T06:46:38;97908.06;;;13.84;100.00
18275;BME280;19470;49.322;7.218;2022-12-29T06:49:05;97925.06;;;14.36;98.08
18275;BME280;19470;49.322;7.218;2022-12-29T06:51:31;97903.13;;;14.20;98.97
18275;BME280;19470;49.322;7.218;2022-12-29T06:53:57;97923.16;;;14.18;100.00
18275;BME280;19470;49.322;7.218;2022-12-29T06:56:25;97930.41;;;14.36;100.00
18275;BME280;19470;49.322;7.218;2022-12-29T06:58:52;97910.44;;;13.86;100.00
18275;BME280;19470;49.322;7.218;2022-12-29T07:01:18;97925.97;;;14.02;100.00
18275;BME280;19470;49.322;7.218;2022-12-29T07:03:45;97924.38;;;14.25;100.00
18275;BME280;19470;49.322;7.218;2022-12-29T07:06:11;97925.41;;;14.29;99.50
18275;BME280;19470;49.322;7.218;2022-12-29T07:08:38;97914.66;;;14.40;98.89
18275;BME280;19470;49.322;7.218;2022-12-29T07:11:04;97916.00;;;14.37;100.00
18275;BME280;19470;49.322;7.218;2022-12-29T07:13:32;97941.97;;;14.50;99.36
18275;BME280;19470;49.322;7.218;2022-12-29T07:15:59;97942.22;;;14.54;99.62
18275;BME280;19470;49.322;7.218;2022-12-29T07:18:25;97931.28;;;14.74;97.21
18275;BME280;19470;49.322;7.218;2022-12-29T07:20:52;97950.44;;;14.28;100.00
18275;BME280;19470;49.322;7.218;2022-12-29T07:23:18;97957.06;;;14.60;98.53
18275;BME280;19470;49.322;7.218;2022-12-29T07:25:45;97943.31;;;14.48;100.00
18275;BME280;19470;49.322;7.218;2022-12-29T07:28:12;97962.69;;;14.29;99.94
18275;BME280;19470;49.322;7.218;2022-12-29T07:30:40;97945.25;;;14.66;97.89
18275;BME280;19470;49.322;7.218;2022-12-29T07:33:06;97931.91;;;14.18;99.51
18275;BME280;19470;49.322;7.218;2022-12-29T07:35:33;97975.75;;;14.55;99.90
18275;BME280;19470;49.322;7.218;2022-12-29T07:38:00;97998.59;;;14.08;100.00
18275;BME280;19470;49.322;7.218;2022-12-29T07:40:26;97952.88;;;13.38;100.00
18275;BME280;19470;49.322;7.218;2022-12-29T07:42:52;97983.03;;;13.57;100.00
18275;BME280;19470;49.322;7.218;2022-12-29T07:45:19;97979.31;;;13.58;100.00
18275;BME280;19470;49.322;7.218;2022-12-29T07:47:48;97973.91;;;13.68;100.00
18275;BME280;19470;49.322;7.218;2022-12-29T07:50:15;97974.50;;;13.94;100.00
18275;BME280;19470;49.322;7.218;2022-12-29T07:52:42;97972.88;;;14.22;100.00
18275;BME280;19470;49.322;7.218;2022-12-29T07:55:08;97981.09;;;13.97;100.00
18275;BME280;19470;49.322;7.218;2022-12-29T07:57:35;97991.84;;;13.87;100.00
18275;BME280;19470;49.322;7.218;2022-12-29T08:00:02;97997.94;;;14.21;100.00
18275;BME280;19470;49.322;7.218;2022-12-29T08:02:29;97986.34;;;14.84;100.00
18275;BME280;19470;49.322;7.218;2022-12-29T08:04:57;98002.16;;;13.98;100.00
18275;BME280;19470;49.322;7.218;2022-12-29T08:07:23;98006.97;;;14.20;100.00
18275;BME280;19470;49.322;7.218;2022-12-29T08:09:49;98015.16;;;13.26;100.00
18275;BME280;19470;49.322;7.218;2022-12-29T08:12:16;98056.09;;;13.25;100.00
18275;BME280;19470;49.322;7.218;2022-12-29T08:14:42;98025.78;;;13.26;100.00
18275;BME280;19470;49.322;7.218;2022-12-29T08:17:09;98025.75;;;13.37;100.00
18275;BME280;19470;49.322;7.218;2022-12-29T08:19:36;98005.63;;;13.65;100.00
18275;BME280;19470;49.322;7.218;2022-12-29T08:22:04;98022.69;;;13.53;100.00
18275;BME280;19470;49.322;7.218;2022-12-29T08:24:30;98037.03;;;13.03;100.00
18275;BME280;19470;49.322;7.218;2022-12-29T08:26:57;98018.00;;;13.40;100.00
18275;BME280;19470;49.322;7.218;2022-12-29T08:29:23;98027.28;;;13.48;100.00
18275;BME280;19470;49.322;7.218;2022-12-29T08:31:50;98020.72;;;13.74;100.00
18275;BME280;19470;49.322;7.218;2022-12-29T08:34:16;98015.59;;;13.44;100.00
18275;BME280;19470;49.322;7.218;2022-12-29T08:36:42;98041.50;;;13.67;100.00
18275;BME280;19470;49.322;7.218;2022-12-29T08:39:10;98035.44;;;13.96;100.00
18275;BME280;19470;49.322;7.218;2022-12-29T08:41:37;98040.16;;;13.70;100.00
18275;BME280;19470;49.322;7.218;2022-12-29T08:44:04;98044.44;;;13.66;100.00
18275;BME280;19470;49.322;7.218;2022-12-29T08:46:30;98047.16;;;13.61;100.00
18275;BME280;19470;49.322;7.218;2022-12-29T08:48:57;98045.94;;;13.77;100.00
18275;BME280;19470;49.322;7.218;2022-12-29T08:51:23;98051.03;;;13.29;100.00
18275;BME280;19470;49.322;7.218;2022-12-29T08:53:50;98044.56;;;13.50;100.00
18275;BME280;19470;49.322;7.218;2022-12-29T08:56:18;98043.38;;;13.22;100.00
18275;BME280;19470;49.322;7.218;2022-12-29T08:58:44;98050.91;;;12.95;100.00
18275;BME280;19470;49.322;7.218;2022-12-29T09:01:11;98041.25;;;13.64;100.00
18275;BME280;19470;49.322;7.218;2022-12-29T09:03:37;98039.84;;;13.37;100.00
18275;BME280;19470;49.322;7.218;2022-12-29T09:06:04;98043.41;;;13.96;100.00
18275;BME280;19470;49.322;7.218;2022-12-29T09:08:31;98053.47;;;14.33;100.00
18275;BME280;19470;49.322;7.218;2022-12-29T09:11:05;98067.50;;;13.80;100.00
18275;BME280;19470;49.322;7.218;2022-12-29T09:13:34;98051.34;;;13.67;100.00
18275;BME280;19470;49.322;7.218;2022-12-29T09:16:00;98053.25;;;14.59;100.00
18275;BME280;19470;49.322;7.218;2022-12-29T09:18:27;98050.56;;;14.00;100.00
18275;BME280;19470;49.322;7.218;2022-12-29T09:20:56;98060.63;;;14.38;100.00
18275;BME280;19470;49.322;7.218;2022-12-29T09:23:22;98069.81;;;14.55;100.00
18275;BME280;19470;49.322;7.218;2022-12-29T09:25:49;98050.03;;;14.32;100.00
18275;BME280;19470;49.322;7.218;2022-12-29T09:28:15;98084.78;;;14.17;100.00
18275;BME280;19470;49.322;7.218;2022-12-29T09:30:43;98053.75;;;14.61;100.00
18275;BME280;19470;49.322;7.218;2022-12-29T09:33:09;98053.31;;;14.19;100.00
18275;BME280;19470;49.322;7.218;2022-12-29T09:35:36;98060.66;;;14.03;100.00
18275;BME280;19470;49.322;7.218;2022-12-29T09:38:02;98032.81;;;14.20;100.00
18275;BME280;19470;49.322;7.218;2022-12-29T09:40:31;98069.94;;;14.06;100.00
18275;BME280;19470;49.322;7.218;2022-12-29T09:43:09;98052.63;;;14.09;100.00
18275;BME280;19470;49.322;7.218;2022-12-29T09:45:43;98066.44;;;14.45;100.00
18275;BME280;19470;49.322;7.218;2022-12-29T09:48:14;98101.97;;;13.96;100.00
18275;BME280;19470;49.322;7.218;2022-12-29T09:50:44;98070.78;;;14.36;100.00
18275;BME280;19470;49.322;7.218;2022-12-29T09:53:15;98061.91;;;14.16;100.00
18275;BME280;19470;49.322;7.218;2022-12-29T09:55:47;98079.56;;;14.02;100.00
18275;BME280;19470;49.322;7.218;2022-12-29T09:58:19;98075.81;;;14.08;100.00
18275;BME280;19470;49.322;7.218;2022-12-29T10:00:52;98086.69;;;14.12;100.00
18275;BME280;19470;49.322;7.218;2022-12-29T10:03:20;98075.75;;;14.13;100.00
18275;BME280;19470;49.322;7.218;2022-12-29T10:05:54;98082.91;;;13.84;100.00
18275;BME280;19470;49.322;7.218;2022-12-29T10:08:30;98077.00;;;13.87;100.00
18275;BME280;19470;49.322;7.218;2022-12-29T10:11:06;98108.88;;;13.58;100.00
18275;BME280;19470;49.322;7.218;2022-12-29T10:13:43;98102.28;;;13.45;100.00
18275;BME280;19470;49.322;7.218;2022-12-29T10:16:19;98093.53;;;13.39;100.00
18275;BME280;19470;49.322;7.218;2022-12-29T10:19:04;98115.38;;;13.31;100.00
18275;BME280;19470;49.322;7.218;2022-12-29T10:21:45;98100.25;;;13.16;100.00
18275;BME280;19470;49.322;7.218;2022-12-29T10:24:17;98119.16;;;13.15;100.00
18275;BME280;19470;49.322;7.218;2022-12-29T10:26:46;98115.22;;;12.92;100.00
18275;BME280;19470;49.322;7.218;2022-12-29T10:29:17;98107.16;;;13.17;100.00
18275;BME280;19470;49.322;7.218;2022-12-29T10:31:49;98115.16;;;13.12;100.00
18275;BME280;19470;49.322;7.218;2022-12-29T10:34:21;98109.41;;;12.74;100.00
18275;BME280;19470;49.322;7.218;2022-12-29T10:36:52;98099.91;;;12.58;100.00
18275;BME280;19470;49.322;7.218;2022-12-29T10:39:23;98082.16;;;12.33;100.00
18275;BME280;19470;49.322;7.218;2022-12-29T10:42:01;98090.09;;;12.48;100.00
18275;BME280;19470;49.322;7.218;2022-12-29T10:44:31;98093.53;;;12.54;100.00
18275;BME280;19470;49.322;7.218;2022-12-29T10:47:03;98092.25;;;13.26;100.00
18275;BME280;19470;49.322;7.218;2022-12-29T10:49:32;98100.34;;;12.96;100.00
18275;BME280;19470;49.322;7.218;2022-12-29T10:52:02;98102.97;;;13.06;100.00
18275;BME280;19470;49.322;7.218;2022-12-29T10:54:32;98099.84;;;12.78;100.00
18275;BME280;19470;49.322;7.218;2022-12-29T10:57:02;98106.72;;;13.00;100.00
18275;BME280;19470;49.322;7.218;2022-12-29T10:59:31;98093.88;;;13.12;100.00
18275;BME280;19470;49.322;7.218;2022-12-29T11:02:21;98098.06;;;13.39;100.00
18275;BME280;19470;49.322;7.218;2022-12-29T11:04:55;98092.75;;;13.39;100.00
18275;BME280;19470;49.322;7.218;2022-12-29T11:07:23;98089.53;;;13.42;100.00
18275;BME280;19470;49.322;7.218;2022-12-29T11:09:51;98105.53;;;13.37;100.00
18275;BME280;19470;49.322;7.218;2022-12-29T11:12:21;98090.69;;;13.75;100.00
18275;BME280;19470;49.322;7.218;2022-12-29T11:15:01;98085.75;;;13.97;100.00
18275;BME280;19470;49.322;7.218;2022-12-29T11:17:29;98092.09;;;13.62;100.00
18275;BME280;19470;49.322;7.218;2022-12-29T11:19:56;98099.16;;;13.77;100.00
18275;BME280;19470;49.322;7.218;2022-12-29T11:22:25;98094.81;;;13.52;100.00
18275;BME280;19470;49.322;7.218;2022-12-29T11:24:54;98111.66;;;13.81;100.00
18275;BME280;19470;49.322;7.218;2022-12-29T11:27:22;98086.41;;;14.13;100.00
18275;BME280;19470;49.322;7.218;2022-12-29T11:29:50;98112.16;;;13.89;100.00
18275;BME280;19470;49.322;7.218;2022-12-29T11:32:18;98094.03;;;13.91;100.00
18275;BME280;19470;49.322;7.218;2022-12-29T11:34:47;98104.16;;;14.23;100.00
18275;BME280;19470;49.322;7.218;2022-12-29T11:37:16;98109.91;;;14.01;100.00
18275;BME280;19470;49.322;7.218;2022-12-29T11:39:50;98090.44;;;14.05;100.00
18275;BME280;19470;49.322;7.218;2022-12-29T11:42:18;98115.25;;;14.01;100.00
18275;BME280;19470;49.322;7.218;2022-12-29T11:44:48;98107.91;;;13.82;100.00
18275;BME280;19470;49.322;7.218;2022-12-29T11:47:24;98105.75;;;14.24;100.00
18275;BME280;19470;49.322;7.218;2022-12-29T11:49:56;98111.34;;;13.88;100.00
18275;BME280;19470;49.322;7.218;2022-12-29T11:52:25;98099.31;;;13.96;100.00
18275;BME280;19470;49.322;7.218;2022-12-29T11:54:53;98107.06;;;13.48;100.00
18275;BME280;19470;49.322;7.218;2022-12-29T11:57:21;98113.84;;;13.74;100.00
18275;BME280;19470;49.322;7.218;2022-12-29T11:59:50;98117.66;;;14.02;100.00
18275;BME280;19470;49.322;7.218;2022-12-29T12:02:26;98110.03;;;14.20;100.00
18275;BME280;19470;49.322;7.218;2022-12-29T12:05:02;98109.84;;;13.22;100.00
18275;BME280;19470;49.322;7.218;2022-12-29T12:07:38;98115.16;;;13.22;100.00
18275;BME280;19470;49.322;7.218;2022-12-29T12:10:09;98090.81;;;12.79;100.00
18275;BME280;19470;49.322;7.218;2022-12-29T12:12:43;98101.88;;;13.22;100.00
18275;BME280;19470;49.322;7.218;2022-12-29T12:15:16;98101.59;;;13.24;100.00
18275;BME280;19470;49.322;7.218;2022-12-29T12:17:49;98099.75;;;13.14;100.00
18275;BME280;19470;49.322;7.218;2022-12-29T12:20:22;98096.34;;;12.93;100.00
18275;BME280;19470;49.322;7.218;2022-12-29T12:22:58;98096.03;;;13.10;100.00
18275;BME280;19470;49.322;7.218;2022-12-29T12:25:31;98104.75;;;13.36;100.00
18275;BME280;19470;49.322;7.218;2022-12-29T12:28:05;98093.78;;;13.43;100.00
18275;BME280;19470;49.322;7.218;2022-12-29T12:30:38;98092.00;;;13.72;100.00
18275;BME280;19470;49.322;7.218;2022-12-29T12:33:15;98077.38;;;13.20;100.00
18275;BME280;19470;49.322;7.218;2022-12-29T12:35:51;98080.31;;;13.24;100.00
18275;BME280;19470;49.322;7.218;2022-12-29T12:38:27;98072.63;;;13.12;100.00
18275;BME280;19470;49.322;7.218;2022-12-29T12:41:07;98083.63;;;13.50;100.00
18275;BME280;19470;49.322;7.218;2022-12-29T12:43:39;98086.94;;;13.21;100.00
18275;BME280;19470;49.322;7.218;2022-12-29T12:46:18;98089.59;;;13.32;100.00
18275;BME280;19470;49.322;7.218;2022-12-29T12:48:59;98083.13;;;13.48;100.00
18275;BME280;19470;49.322;7.218;2022-12-29T12:51:38;98086.59;;;13.43;100.00
18275;BME280;19470;49.322;7.218;2022-12-29T12:54:19;98089.09;;;13.19;100.00
18275;BME280;19470;49.322;7.218;2022-12-29T12:57:02;98086.28;;;13.55;100.00
18275;BME280;19470;49.322;7.218;2022-12-29T12:59:45;98079.50;;;13.28;100.00
18275;BME280;19470;49.322;7.218;2022-12-29T13:02:27;98101.59;;;13.24;100.00
18275;BME280;19470;49.322;7.218;2022-12-29T13:05:25;98086.31;;;13.45;100.00
18275;BME280;19470;49.322;7.218;2022-12-29T13:08:06;98089.09;;;13.24;100.00
18275;BME280;19470;49.322;7.218;2022-12-29T13:10:42;98087.50;;;13.23;100.00
18275;BME280;19470;49.322;7.218;2022-12-29T13:13:30;98077.94;;;13.22;100.00